Wild Rice, North Dakota
Current Conditions -  °F | °C
As of 10:54 AM on Friday 24 Oct 2014 (Local Time) from KJKJ Reporting Station
Clear Clear  
Wind Chill: 12°   Ceiling: Unl
Heat Index: 12°   Visibility: 10mi
Dew Point:   Wind: 6mph
Humidity: 72%   Direction: 220°SW
Pressure: 29.84"   Gusts: NA
Location:  46.7039°N, 96.8572°W
Report Text: KJKJ 241554Z AUTO 22005KT 10SM CLR 12/07 A2984 RMK AO2
Loading
Personal Weather Stations






























Interactive Weather Map
Tropical Storm Tracking
New forecast layout! Learn more

10-Day Weather Forecast

Advertisements
Track Severe Weather on mobile